Time;durP1;ratioP1;P1;durP2;ratioP2;P2;SDS_P1;SDS_P2;PMS_P1;PMS_P2;Temp;Humidity;BMP_temperature;BMP_pressure;BME280_temperature;BME280_humidity;BME280_pressure;Samples;Min_cycle;Max_cycle;Signal;HPM_P1;HPM_P2
2021/12/29 00:00:26;;;;;;;498.27;154.88;;;;;;;;;;5028550;28;20042;-64
2021/12/29 00:02:53;;;;;;;459.63;139.68;;;;;;;;;;5029998;28;20497;-64
2021/12/29 00:05:21;;;;;;;440.75;135.35;;;;;;;;;;5031607;28;20049;-64
2021/12/29 00:07:48;;;;;;;460.02;141.02;;;;;;;;;;5031114;28;20042;-64
2021/12/29 00:10:15;;;;;;;432.98;129.85;;;;;;;;;;5031958;28;20073;-64
2021/12/29 00:12:47;;;;;;;443.33;134.18;;;;;;;;;;5029080;28;20045;-64
2021/12/29 00:15:15;;;;;;;410.52;124.55;;;;;;;;;;5030885;28;20049;-63
2021/12/29 00:17:44;;;;;;;453.63;134.55;;;;;;;;;;5031549;28;20052;-64
2021/12/29 00:20:11;;;;;;;411.17;123.13;;;;;;;;;;5031508;28;20045;-64
2021/12/29 00:22:38;;;;;;;403.00;123.78;;;;;;;;;;5031728;28;20045;-65
2021/12/29 00:25:06;;;;;;;415.48;124.43;;;;;;;;;;5030702;28;20127;-65
2021/12/29 00:27:33;;;;;;;357.70;111.95;;;;;;;;;;5032150;28;20443;-65
2021/12/29 00:30:00;;;;;;;394.30;118.22;;;;;;;;;;5030605;28;20053;-66
2021/12/29 00:32:27;;;;;;;387.17;121.00;;;;;;;;;;5031525;28;20053;-64
2021/12/29 00:34:54;;;;;;;387.92;116.32;;;;;;;;;;5030936;28;20049;-64
2021/12/29 00:37:21;;;;;;;358.27;105.90;;;;;;;;;;5028076;28;20059;-64
2021/12/29 00:39:49;;;;;;;322.40;96.50;;;;;;;;;;5031054;28;20057;-64
2021/12/29 00:42:16;;;;;;;372.63;108.95;;;;;;;;;;5026585;28;20455;-66
2021/12/29 00:44:43;;;;;;;339.00;101.97;;;;;;;;;;5028801;28;20068;-65
2021/12/29 00:47:12;;;;;;;327.98;104.80;;;;;;;;;;5029570;28;20053;-66
2021/12/29 00:49:40;;;;;;;344.58;101.53;;;;;;;;;;5029262;28;20674;-65
2021/12/29 00:52:08;;;;;;;313.90;98.53;;;;;;;;;;5029388;28;20053;-65
2021/12/29 00:54:36;;;;;;;326.73;98.13;;;;;;;;;;5030400;28;20049;-67
2021/12/29 00:57:04;;;;;;;318.23;95.65;;;;;;;;;;5031608;28;20046;-67
2021/12/29 00:59:31;;;;;;;281.33;86.10;;;;;;;;;;5028643;28;20049;-67
2021/12/29 01:01:58;;;;;;;280.98;86.65;;;;;;;;;;5027563;28;20050;-67
2021/12/29 01:04:25;;;;;;;310.05;91.47;;;;;;;;;;5029749;28;20140;-63
2021/12/29 01:06:53;;;;;;;280.73;85.10;;;;;;;;;;5030304;28;20068;-65
2021/12/29 01:09:20;;;;;;;275.17;83.05;;;;;;;;;;5028311;28;20051;-65
2021/12/29 01:11:48;;;;;;;283.80;84.90;;;;;;;;;;5030662;28;20053;-65
2021/12/29 01:14:21;;;;;;;272.10;80.43;;;;;;;;;;5029662;28;20489;-66
2021/12/29 01:16:49;;;;;;;258.63;78.55;;;;;;;;;;5030330;28;20053;-64
2021/12/29 01:19:21;;;;;;;259.27;75.60;;;;;;;;;;5030734;28;20045;-64
2021/12/29 01:21:51;;;;;;;255.07;78.25;;;;;;;;;;5026968;28;20057;-65
2021/12/29 01:24:21;;;;;;;259.48;78.70;;;;;;;;;;5026952;28;20046;-64
2021/12/29 01:26:49;;;;;;;238.27;71.38;;;;;;;;;;5030524;28;20046;-64
2021/12/29 01:29:16;;;;;;;229.63;67.00;;;;;;;;;;5028985;28;20049;-67
2021/12/29 01:31:45;;;;;;;203.80;61.40;;;;;;;;;;5026798;28;20500;-64
2021/12/29 01:34:12;;;;;;;153.30;44.42;;;;;;;;;;5026429;28;20473;-63
2021/12/29 01:36:39;;;;;;;123.50;36.00;;;;;;;;;;5029181;28;20458;-63
2021/12/29 01:39:08;;;;;;;96.60;29.30;;;;;;;;;;5029284;28;20041;-63
2021/12/29 01:41:35;;;;;;;76.22;22.13;;;;;;;;;;5028229;28;20057;-63
2021/12/29 01:44:03;;;;;;;48.03;15.65;;;;;;;;;;5028143;28;20060;-63
2021/12/29 01:46:30;;;;;;;47.20;14.50;;;;;;;;;;5027639;28;20053;-63
2021/12/29 01:48:57;;;;;;;39.90;12.25;;;;;;;;;;5029922;28;20041;-65
2021/12/29 01:51:25;;;;;;;36.55;11.43;;;;;;;;;;5027963;28;20424;-64
2021/12/29 01:54:14;;;;;;;31.98;9.90;;;;;;;;;;5028064;28;20061;-64
2021/12/29 01:56:43;;;;;;;26.42;8.82;;;;;;;;;;5028872;28;20049;-64
2021/12/29 01:59:11;;;;;;;23.88;7.55;;;;;;;;;;5026259;28;20052;-64
2021/12/29 02:01:38;;;;;;;23.63;7.03;;;;;;;;;;5029227;28;20412;-65
2021/12/29 02:04:05;;;;;;;21.10;6.30;;;;;;;;;;5026889;28;20527;-68
2021/12/29 02:06:32;;;;;;;21.92;6.60;;;;;;;;;;5029380;28;20399;-66
2021/12/29 02:08:59;;;;;;;22.80;6.25;;;;;;;;;;5028354;28;20100;-67
2021/12/29 02:11:30;;;;;;;25.08;5.47;;;;;;;;;;5030064;28;20462;-66
2021/12/29 02:13:58;;;;;;;18.33;4.75;;;;;;;;;;5028285;28;20045;-64
2021/12/29 02:16:26;;;;;;;16.65;4.68;;;;;;;;;;5027897;28;20056;-64
2021/12/29 02:18:57;;;;;;;10.55;3.70;;;;;;;;;;5028941;28;20045;-65
2021/12/29 02:21:26;;;;;;;14.00;3.47;;;;;;;;;;5028256;28;20045;-64
2021/12/29 02:26:36;;;;;;;9.45;2.90;;;;;;;;;;5028829;28;20053;-64
2021/12/29 02:29:04;;;;;;;7.53;2.80;;;;;;;;;;5028363;28;20049;-64
2021/12/29 02:31:31;;;;;;;21.50;4.10;;;;;;;;;;5028957;28;20064;-65
2021/12/29 02:33:58;;;;;;;18.00;4.25;;;;;;;;;;5028742;28;20058;-64
2021/12/29 02:36:27;;;;;;;20.90;3.83;;;;;;;;;;5029023;28;20095;-64
2021/12/29 02:38:55;;;;;;;13.25;4.03;;;;;;;;;;5025577;28;20099;-64
2021/12/29 02:41:24;;;;;;;13.52;3.80;;;;;;;;;;5030521;28;20053;-64
2021/12/29 02:43:58;;;;;;;18.77;3.80;;;;;;;;;;5027536;28;20104;-64
2021/12/29 02:46:26;;;;;;;13.93;3.00;;;;;;;;;;5027479;28;20420;-63
2021/12/29 02:49:02;;;;;;;13.85;3.60;;;;;;;;;;5029152;28;20069;-63
2021/12/29 02:51:30;;;;;;;14.82;4.00;;;;;;;;;;5025400;28;20046;-63
2021/12/29 02:53:57;;;;;;;18.17;4.45;;;;;;;;;;5027787;28;20049;-63
2021/12/29 02:56:26;;;;;;;14.02;3.47;;;;;;;;;;5028937;28;20041;-63
2021/12/29 02:58:54;;;;;;;13.05;4.15;;;;;;;;;;5028107;28;20052;-64
2021/12/29 03:01:21;;;;;;;13.40;3.47;;;;;;;;;;5029248;28;20049;-63
2021/12/29 03:03:48;;;;;;;13.65;3.80;;;;;;;;;;5027689;28;20049;-62
2021/12/29 03:06:15;;;;;;;12.43;3.83;;;;;;;;;;5030196;28;20738;-63
2021/12/29 03:08:43;;;;;;;12.25;3.83;;;;;;;;;;5026904;28;20046;-64
2021/12/29 03:11:10;;;;;;;11.85;3.63;;;;;;;;;;5029160;28;20064;-63
2021/12/29 03:13:38;;;;;;;12.75;3.22;;;;;;;;;;5025981;28;20504;-64
2021/12/29 03:16:06;;;;;;;11.68;3.35;;;;;;;;;;5027435;28;20412;-64
2021/12/29 03:18:34;;;;;;;14.07;2.67;;;;;;;;;;5028821;28;20046;-63
2021/12/29 03:21:01;;;;;;;10.55;3.03;;;;;;;;;;5027065;28;20500;-64
2021/12/29 03:23:28;;;;;;;8.57;3.15;;;;;;;;;;5028250;28;20045;-63
2021/12/29 03:25:55;;;;;;;7.75;2.67;;;;;;;;;;5027700;28;20071;-64
2021/12/29 03:28:23;;;;;;;9.70;3.33;;;;;;;;;;5028951;28;20060;-63
2021/12/29 03:30:52;;;;;;;8.52;2.60;;;;;;;;;;5026790;28;20053;-65
2021/12/29 03:33:20;;;;;;;9.15;2.72;;;;;;;;;;5027551;28;20056;-64
2021/12/29 03:35:52;;;;;;;8.93;2.75;;;;;;;;;;5029314;28;20048;-63
2021/12/29 03:38:21;;;;;;;10.98;3.17;;;;;;;;;;5025906;28;20080;-64
2021/12/29 03:40:48;;;;;;;10.65;2.95;;;;;;;;;;5025641;28;20496;-65
2021/12/29 03:43:15;;;;;;;12.55;3.03;;;;;;;;;;5026289;28;20057;-65
2021/12/29 03:45:45;;;;;;;8.98;2.97;;;;;;;;;;5026039;28;20057;-65
2021/12/29 03:48:13;;;;;;;7.85;2.70;;;;;;;;;;5028436;28;20053;-64
2021/12/29 03:50:40;;;;;;;8.10;2.60;;;;;;;;;;5030658;28;20132;-64
2021/12/29 03:53:09;;;;;;;13.20;2.55;;;;;;;;;;5030640;28;20048;-64
2021/12/29 03:55:36;;;;;;;11.25;2.65;;;;;;;;;;5030894;28;20053;-64
2021/12/29 03:58:03;;;;;;;6.95;2.05;;;;;;;;;;5025163;28;20049;-63
2021/12/29 04:00:30;;;;;;;7.43;2.50;;;;;;;;;;5031720;28;20038;-63
2021/12/29 04:02:57;;;;;;;8.57;3.05;;;;;;;;;;5044235;28;20081;-63
2021/12/29 04:05:24;;;;;;;10.75;2.28;;;;;;;;;;5032412;28;20069;-63
2021/12/29 04:07:56;;;;;;;7.47;2.42;;;;;;;;;;5029085;28;20049;-63
2021/12/29 04:10:23;;;;;;;6.53;2.10;;;;;;;;;;5031589;28;20050;-63
2021/12/29 04:12:50;;;;;;;6.95;2.53;;;;;;;;;;5029660;28;20484;-63
2021/12/29 04:15:18;;;;;;;8.05;2.65;;;;;;;;;;5029998;28;20103;-63
2021/12/29 04:17:46;;;;;;;5.97;2.20;;;;;;;;;;5033149;28;20049;-63
2021/12/29 04:23:03;;;;;;;12.15;2.63;;;;;;;;;;5030702;28;20057;-63
2021/12/29 04:25:34;;;;;;;7.50;1.92;;;;;;;;;;5031632;28;20056;-64
2021/12/29 04:28:02;;;;;;;7.80;1.90;;;;;;;;;;5028509;28;20389;-63
2021/12/29 04:30:29;;;;;;;6.88;2.05;;;;;;;;;;5032141;28;20068;-62
2021/12/29 04:32:56;;;;;;;8.57;2.50;;;;;;;;;;5030295;28;20049;-63
2021/12/29 04:35:23;;;;;;;14.35;2.25;;;;;;;;;;5032072;28;20050;-64
2021/12/29 04:37:51;;;;;;;19.50;2.78;;;;;;;;;;5029860;28;20046;-62
2021/12/29 04:40:19;;;;;;;10.50;2.35;;;;;;;;;;5030193;28;20419;-63
2021/12/29 04:42:46;;;;;;;9.57;1.92;;;;;;;;;;5028722;28;20049;-62
2021/12/29 04:45:13;;;;;;;9.80;2.55;;;;;;;;;;5030970;28;20520;-63
2021/12/29 04:47:43;;;;;;;11.02;1.75;;;;;;;;;;5031122;28;20064;-62
2021/12/29 04:50:24;;;;;;;4.93;1.70;;;;;;;;;;5028848;28;20045;-62
2021/12/29 04:52:52;;;;;;;9.80;2.08;;;;;;;;;;5029045;28;20088;-62
2021/12/29 04:55:20;;;;;;;5.88;1.90;;;;;;;;;;5030744;28;20045;-64
2021/12/29 04:57:49;;;;;;;10.35;2.17;;;;;;;;;;5026917;28;20077;-64
2021/12/29 05:00:16;;;;;;;19.77;2.60;;;;;;;;;;5030410;28;20052;-63
2021/12/29 05:02:43;;;;;;;11.93;2.42;;;;;;;;;;5028792;28;20218;-63
2021/12/29 05:10:42;;;;;;;21.75;2.70;;;;;;;;;;5026670;28;20045;-62
2021/12/29 05:13:09;;;;;;;10.27;2.05;;;;;;;;;;5029725;28;20060;-63
2021/12/29 05:15:36;;;;;;;16.10;2.67;;;;;;;;;;5028164;28;21226;-64
2021/12/29 05:18:03;;;;;;;10.93;2.33;;;;;;;;;;5030015;28;20155;-64
2021/12/29 05:20:30;;;;;;;17.08;2.58;;;;;;;;;;5030301;28;20053;-64
2021/12/29 05:22:59;;;;;;;10.02;1.92;;;;;;;;;;5028049;28;20060;-64
2021/12/29 05:25:27;;;;;;;11.88;2.10;;;;;;;;;;5030123;28;20049;-64
2021/12/29 05:27:54;;;;;;;10.82;2.22;;;;;;;;;;5028272;28;20049;-62
2021/12/29 05:30:23;;;;;;;11.98;1.95;;;;;;;;;;5029972;28;20088;-64
2021/12/29 05:32:50;;;;;;;14.45;2.22;;;;;;;;;;5029718;28;20072;-63
2021/12/29 05:35:17;;;;;;;11.63;1.50;;;;;;;;;;5030970;28;20068;-63
2021/12/29 05:37:44;;;;;;;6.38;1.50;;;;;;;;;;5029245;28;20041;-64
2021/12/29 05:40:12;;;;;;;9.98;1.88;;;;;;;;;;5029817;28;22222;-62
2021/12/29 05:42:39;;;;;;;8.43;1.88;;;;;;;;;;5028513;28;20603;-62
2021/12/29 05:45:08;;;;;;;6.05;1.77;;;;;;;;;;5029604;28;20049;-62
2021/12/29 05:47:35;;;;;;;9.63;2.20;;;;;;;;;;5027647;28;20095;-62
2021/12/29 05:50:03;;;;;;;29.55;3.15;;;;;;;;;;5026627;28;20156;-63
2021/12/29 05:52:30;;;;;;;16.67;2.88;;;;;;;;;;5027560;28;20415;-65
2021/12/29 05:54:57;;;;;;;22.40;3.05;;;;;;;;;;5029346;28;20057;-63
2021/12/29 05:57:24;;;;;;;11.32;2.00;;;;;;;;;;5027574;28;20095;-64
2021/12/29 05:59:51;;;;;;;12.73;2.10;;;;;;;;;;5029056;28;20038;-64
2021/12/29 06:02:19;;;;;;;12.25;2.22;;;;;;;;;;5025799;28;20045;-64
2021/12/29 06:04:46;;;;;;;14.25;2.50;;;;;;;;;;5029766;28;20053;-64
2021/12/29 06:07:13;;;;;;;15.00;2.55;;;;;;;;;;5029460;28;20504;-63
2021/12/29 06:09:41;;;;;;;6.10;1.95;;;;;;;;;;5029386;28;20049;-63
2021/12/29 06:12:08;;;;;;;5.72;1.67;;;;;;;;;;5027664;28;20045;-64
2021/12/29 06:14:35;;;;;;;10.50;2.03;;;;;;;;;;5027644;28;20049;-64
2021/12/29 06:17:02;;;;;;;16.35;2.28;;;;;;;;;;5029624;28;20049;-66
2021/12/29 06:19:31;;;;;;;7.75;1.83;;;;;;;;;;5027757;28;20041;-65
2021/12/29 06:21:58;;;;;;;9.75;1.67;;;;;;;;;;5028736;28;20053;-65
2021/12/29 06:24:25;;;;;;;9.40;1.70;;;;;;;;;;5028227;28;20098;-65
2021/12/29 06:26:52;;;;;;;14.90;2.22;;;;;;;;;;5030424;28;20045;-64
2021/12/29 06:29:19;;;;;;;9.48;1.58;;;;;;;;;;5027664;28;20049;-64
2021/12/29 06:31:48;;;;;;;5.53;1.58;;;;;;;;;;5029749;28;20049;-64
2021/12/29 06:34:15;;;;;;;12.65;1.67;;;;;;;;;;5027132;28;20412;-64
2021/12/29 06:36:42;;;;;;;14.95;1.58;;;;;;;;;;5026238;28;20485;-66
2021/12/29 06:39:09;;;;;;;7.32;1.92;;;;;;;;;;5029710;28;20052;-66
2021/12/29 06:41:36;;;;;;;7.45;2.20;;;;;;;;;;5027217;28;20400;-66
2021/12/29 06:44:03;;;;;;;12.23;1.80;;;;;;;;;;5028342;28;20477;-66
2021/12/29 06:46:31;;;;;;;8.85;1.50;;;;;;;;;;5028395;28;20459;-66
2021/12/29 06:48:58;;;;;;;8.30;1.73;;;;;;;;;;5027874;28;20085;-66
2021/12/29 06:51:25;;;;;;;4.22;1.50;;;;;;;;;;5028023;28;20050;-66
2021/12/29 06:53:52;;;;;;;9.05;1.55;;;;;;;;;;5027999;28;20060;-66
2021/12/29 06:56:20;;;;;;;7.57;1.48;;;;;;;;;;5030086;28;20042;-66
2021/12/29 06:58:47;;;;;;;8.30;1.40;;;;;;;;;;5027659;28;20602;-66
2021/12/29 07:01:16;;;;;;;10.60;1.55;;;;;;;;;;5027862;28;20054;-66
2021/12/29 07:03:44;;;;;;;9.43;1.57;;;;;;;;;;5028608;28;20049;-66
2021/12/29 07:06:11;;;;;;;9.95;1.63;;;;;;;;;;5027610;28;20053;-66
2021/12/29 07:08:40;;;;;;;6.15;1.73;;;;;;;;;;5027869;28;20057;-66
2021/12/29 07:11:07;;;;;;;7.18;1.60;;;;;;;;;;5028521;28;20505;-67
2021/12/29 07:13:34;;;;;;;6.78;1.33;;;;;;;;;;5027850;28;20072;-67
2021/12/29 07:16:01;;;;;;;10.02;1.35;;;;;;;;;;5026107;28;20053;-66
2021/12/29 07:18:28;;;;;;;5.22;1.33;;;;;;;;;;5029547;28;20058;-66
2021/12/29 07:20:55;;;;;;;5.10;1.30;;;;;;;;;;5026104;28;20054;-66
2021/12/29 07:23:22;;;;;;;5.28;1.25;;;;;;;;;;5030064;28;20436;-65
2021/12/29 07:25:49;;;;;;;10.05;1.50;;;;;;;;;;5031895;28;20053;-64
2021/12/29 07:28:16;;;;;;;5.60;1.08;;;;;;;;;;5029949;28;20057;-64
2021/12/29 07:30:44;;;;;;;6.65;1.48;;;;;;;;;;5031788;28;20507;-64
2021/12/29 07:33:11;;;;;;;6.53;1.17;;;;;;;;;;5031611;28;20045;-63
2021/12/29 07:35:38;;;;;;;6.72;1.67;;;;;;;;;;5033561;28;20050;-64
2021/12/29 07:38:05;;;;;;;5.72;1.30;;;;;;;;;;5030682;28;20140;-64
2021/12/29 07:40:34;;;;;;;6.72;1.38;;;;;;;;;;5033344;28;20052;-64
2021/12/29 07:43:02;;;;;;;5.82;1.52;;;;;;;;;;5030683;28;20060;-64
2021/12/29 07:45:30;;;;;;;4.40;1.30;;;;;;;;;;5031108;28;20061;-63
2021/12/29 07:47:58;;;;;;;4.15;1.10;;;;;;;;;;5030901;28;20053;-64
2021/12/29 07:50:25;;;;;;;3.90;1.30;;;;;;;;;;5031097;28;21958;-63
2021/12/29 07:52:57;;;;;;;3.22;0.98;;;;;;;;;;5030880;28;20084;-63
2021/12/29 07:55:25;;;;;;;5.13;1.20;;;;;;;;;;5030995;28;20124;-63
2021/12/29 07:57:52;;;;;;;6.00;1.30;;;;;;;;;;5029476;28;20064;-64
2021/12/29 08:00:19;;;;;;;6.63;1.33;;;;;;;;;;5030155;28;20041;-64
2021/12/29 08:02:47;;;;;;;6.43;1.30;;;;;;;;;;5029662;28;20578;-64
2021/12/29 08:05:15;;;;;;;5.10;1.30;;;;;;;;;;5031114;28;20085;-64
2021/12/29 08:07:44;;;;;;;5.13;1.30;;;;;;;;;;5032763;28;20050;-63
2021/12/29 08:10:11;;;;;;;4.03;1.25;;;;;;;;;;5028248;28;20045;-64
2021/12/29 08:12:38;;;;;;;10.10;1.60;;;;;;;;;;5031590;28;20054;-65
2021/12/29 08:15:06;;;;;;;4.43;1.00;;;;;;;;;;5029944;28;20455;-65
2021/12/29 08:17:33;;;;;;;4.65;1.10;;;;;;;;;;5032514;28;20049;-65
2021/12/29 08:20:00;;;;;;;3.10;0.90;;;;;;;;;;5031453;28;20101;-65
2021/12/29 08:22:27;;;;;;;7.25;1.52;;;;;;;;;;5029627;28;20445;-64
2021/12/29 08:24:54;;;;;;;8.43;1.77;;;;;;;;;;5032912;28;20045;-64
2021/12/29 08:27:22;;;;;;;7.00;1.65;;;;;;;;;;5030746;28;20049;-65
2021/12/29 08:29:49;;;;;;;7.68;1.20;;;;;;;;;;5032667;28;20472;-64
2021/12/29 08:32:16;;;;;;;6.72;1.40;;;;;;;;;;5029458;28;20053;-64
2021/12/29 08:34:43;;;;;;;6.38;1.38;;;;;;;;;;5030685;28;20053;-64
2021/12/29 08:37:15;;;;;;;5.03;1.67;;;;;;;;;;5030022;28;20099;-64
2021/12/29 08:39:42;;;;;;;6.03;1.08;;;;;;;;;;5031394;28;20037;-64
2021/12/29 08:42:09;;;;;;;8.38;1.35;;;;;;;;;;5029979;28;20045;-64
2021/12/29 08:44:42;;;;;;;8.55;1.30;;;;;;;;;;5028647;28;20045;-66
2021/12/29 08:47:09;;;;;;;14.10;1.98;;;;;;;;;;5030690;28;20412;-67
2021/12/29 08:49:36;;;;;;;6.93;1.63;;;;;;;;;;5029483;28;20052;-67
2021/12/29 08:52:03;;;;;;;5.95;1.58;;;;;;;;;;5030840;28;20054;-68
2021/12/29 08:54:30;;;;;;;10.05;1.48;;;;;;;;;;5031267;28;20060;-67
2021/12/29 08:56:57;;;;;;;2.20;1.05;;;;;;;;;;5030524;28;20056;-67
2021/12/29 08:59:24;;;;;;;5.88;1.42;;;;;;;;;;5030392;28;20045;-66
2021/12/29 09:01:51;;;;;;;6.00;1.20;;;;;;;;;;5030830;28;20045;-66
2021/12/29 09:04:19;;;;;;;2.22;1.00;;;;;;;;;;5031318;28;20394;-66
2021/12/29 09:06:46;;;;;;;6.68;1.30;;;;;;;;;;5030112;28;20432;-67
2021/12/29 09:09:13;;;;;;;6.60;1.70;;;;;;;;;;5029850;28;20057;-73
2021/12/29 09:11:40;;;;;;;9.85;1.48;;;;;;;;;;5031516;28;20076;-72
2021/12/29 09:14:09;;;;;;;4.57;1.33;;;;;;;;;;5029004;28;20046;-72
2021/12/29 09:16:36;;;;;;;4.80;1.42;;;;;;;;;;5030998;28;20050;-68
2021/12/29 09:19:04;;;;;;;4.65;1.20;;;;;;;;;;5029322;28;20064;-68
2021/12/29 09:21:33;;;;;;;3.50;1.10;;;;;;;;;;5028495;28;20044;-68
2021/12/29 09:24:01;;;;;;;5.90;1.70;;;;;;;;;;5029633;28;20058;-68
2021/12/29 09:26:28;;;;;;;4.50;1.00;;;;;;;;;;5030824;28;20063;-69
2021/12/29 09:28:55;;;;;;;8.32;2.10;;;;;;;;;;5028751;28;20045;-67
2021/12/29 09:31:23;;;;;;;10.18;1.70;;;;;;;;;;5029310;28;20485;-67
2021/12/29 09:33:50;;;;;;;8.30;1.50;;;;;;;;;;5031041;28;20053;-67
2021/12/29 09:36:18;;;;;;;17.25;1.15;;;;;;;;;;5029012;28;20435;-68
2021/12/29 09:38:45;;;;;;;8.70;1.60;;;;;;;;;;5030457;28;20041;-68
2021/12/29 09:41:14;;;;;;;7.50;1.40;;;;;;;;;;5029624;28;20045;-68
2021/12/29 09:43:42;;;;;;;9.52;1.20;;;;;;;;;;5029224;28;20491;-66
2021/12/29 09:46:09;;;;;;;4.13;1.23;;;;;;;;;;5029570;28;20511;-68
2021/12/29 09:48:36;;;;;;;11.02;1.20;;;;;;;;;;5029224;28;20131;-65
2021/12/29 09:51:05;;;;;;;6.43;1.27;;;;;;;;;;5029450;28;20119;-65
2021/12/29 09:53:32;;;;;;;101.20;42.90;;;;;;;;;;5023115;28;20546;-62
2021/12/29 09:55:59;;;;;;;383.40;155.40;;;;;;;;;;5021956;28;20049;-63
2021/12/29 09:58:26;;;;;;;563.83;215.02;;;;;;;;;;5023906;28;20068;-64
2021/12/29 10:00:56;;;;;;;558.50;236.45;;;;;;;;;;5026690;28;20509;-64
2021/12/29 10:03:25;;;;;;;518.15;212.95;;;;;;;;;;5028390;28;20045;-62
2021/12/29 10:05:53;;;;;;;485.02;191.50;;;;;;;;;;5029086;28;20508;-64
2021/12/29 10:08:26;;;;;;;479.65;184.07;;;;;;;;;;5029691;28;20042;-63
2021/12/29 10:10:55;;;;;;;463.83;179.57;;;;;;;;;;5038387;28;20480;-63
2021/12/29 10:13:22;;;;;;;401.05;150.13;;;;;;;;;;5027006;28;20061;-64
2021/12/29 10:15:54;;;;;;;382.90;141.30;;;;;;;;;;5027859;28;20048;-63
2021/12/29 10:18:23;;;;;;;368.10;135.38;;;;;;;;;;5027692;28;20052;-63
2021/12/29 10:20:50;;;;;;;308.95;116.13;;;;;;;;;;5027694;28;20053;-63
2021/12/29 10:23:18;;;;;;;345.08;126.63;;;;;;;;;;5027196;28;20053;-63
2021/12/29 10:25:46;;;;;;;301.50;111.53;;;;;;;;;;5029896;28;20049;-63
2021/12/29 10:28:29;;;;;;;312.95;116.00;;;;;;;;;;5027443;28;20508;-63
2021/12/29 10:30:56;;;;;;;298.88;112.85;;;;;;;;;;5027259;28;20103;-63
2021/12/29 10:33:23;;;;;;;303.73;112.78;;;;;;;;;;5026207;28;20052;-63
2021/12/29 10:35:52;;;;;;;321.73;118.07;;;;;;;;;;5023287;28;20060;-64
2021/12/29 10:38:22;;;;;;;292.73;110.13;;;;;;;;;;5025537;28;20906;-64
2021/12/29 10:40:50;;;;;;;254.85;96.72;;;;;;;;;;5027951;28;20453;-64
2021/12/29 10:43:17;;;;;;;246.23;91.65;;;;;;;;;;5026115;28;20054;-63
2021/12/29 10:45:46;;;;;;;243.00;92.13;;;;;;;;;;5024321;28;20093;-62
2021/12/29 10:48:19;;;;;;;227.48;86.18;;;;;;;;;;5025208;28;20084;-61
2021/12/29 10:50:58;;;;;;;210.20;77.70;;;;;;;;;;5028301;28;20488;-62
2021/12/29 10:53:26;;;;;;;204.80;78.85;;;;;;;;;;5025909;28;20056;-61
2021/12/29 10:55:53;;;;;;;192.63;74.22;;;;;;;;;;5029054;28;20057;-67
2021/12/29 10:58:21;;;;;;;220.63;87.78;;;;;;;;;;5029760;28;20042;-61
2021/12/29 11:00:50;;;;;;;312.42;139.10;;;;;;;;;;5033453;28;20452;-61
2021/12/29 11:03:22;;;;;;;372.63;169.60;;;;;;;;;;5032351;28;20048;-60
2021/12/29 11:05:58;;;;;;;325.70;146.15;;;;;;;;;;5030160;28;20416;-62
2021/12/29 11:08:26;;;;;;;316.10;141.52;;;;;;;;;;5030020;28;20531;-61
2021/12/29 11:10:56;;;;;;;320.98;141.73;;;;;;;;;;5031976;28;20049;-60
2021/12/29 11:13:24;;;;;;;313.10;136.10;;;;;;;;;;5029979;28;20057;-60
2021/12/29 11:15:52;;;;;;;272.45;121.68;;;;;;;;;;5031220;28;20041;-61
2021/12/29 11:18:19;;;;;;;252.43;113.38;;;;;;;;;;5032313;28;20067;-61
2021/12/29 11:20:46;;;;;;;266.52;121.30;;;;;;;;;;5021189;28;20564;-61
2021/12/29 11:23:15;;;;;;;277.38;125.30;;;;;;;;;;5025406;28;20401;-60
2021/12/29 11:25:43;;;;;;;257.38;117.78;;;;;;;;;;5025897;28;20413;-63
2021/12/29 11:28:24;;;;;;;272.35;123.18;;;;;;;;;;5025168;28;20061;-62
2021/12/29 11:30:52;;;;;;;237.57;106.90;;;;;;;;;;5024735;28;20069;-60
2021/12/29 11:33:21;;;;;;;242.27;107.80;;;;;;;;;;5024639;28;20095;-64
2021/12/29 11:35:53;;;;;;;221.85;101.60;;;;;;;;;;5025321;28;20053;-61
2021/12/29 11:38:24;;;;;;;245.70;107.43;;;;;;;;;;5024498;28;20049;-60
2021/12/29 11:40:53;;;;;;;233.50;104.65;;;;;;;;;;5025735;28;20530;-62
2021/12/29 11:43:20;;;;;;;229.20;101.82;;;;;;;;;;5024913;28;20050;-61
2021/12/29 11:45:49;;;;;;;225.63;99.03;;;;;;;;;;5022844;28;20060;-60
2021/12/29 11:48:21;;;;;;;224.30;100.22;;;;;;;;;;5025091;28;21355;-61
2021/12/29 11:50:50;;;;;;;204.63;94.43;;;;;;;;;;5022392;28;20061;-62
2021/12/29 11:53:26;;;;;;;201.65;88.07;;;;;;;;;;5025942;28;20057;-60
2021/12/29 11:55:56;;;;;;;186.65;78.78;;;;;;;;;;5024021;28;20060;-62
2021/12/29 11:58:28;;;;;;;205.02;87.45;;;;;;;;;;5025054;28;20056;-62
2021/12/29 12:01:01;;;;;;;194.77;87.07;;;;;;;;;;5022141;28;20077;-62
2021/12/29 12:03:38;;;;;;;169.05;74.20;;;;;;;;;;5024031;28;20495;-62
2021/12/29 12:06:08;;;;;;;171.35;74.10;;;;;;;;;;5024674;28;20049;-62
2021/12/29 12:08:35;;;;;;;155.75;69.18;;;;;;;;;;5023770;28;20108;-62
2021/12/29 12:11:02;;;;;;;174.00;73.68;;;;;;;;;;5024583;28;20049;-62
2021/12/29 12:13:30;;;;;;;182.65;79.82;;;;;;;;;;5021553;28;20057;-60
2021/12/29 12:16:12;;;;;;;169.00;73.63;;;;;;;;;;5023169;28;20061;-61
2021/12/29 12:18:43;;;;;;;166.63;69.72;;;;;;;;;;5023709;28;20052;-60
2021/12/29 12:21:19;;;;;;;184.63;81.90;;;;;;;;;;5024794;28;20064;-62
2021/12/29 12:23:46;;;;;;;154.18;67.10;;;;;;;;;;5022300;28;20057;-58
2021/12/29 12:26:14;;;;;;;160.93;70.13;;;;;;;;;;5025337;28;20510;-57
2021/12/29 12:28:51;;;;;;;168.57;73.07;;;;;;;;;;5024259;28;20065;-57
2021/12/29 12:31:29;;;;;;;153.77;63.83;;;;;;;;;;5021733;28;20045;-60
2021/12/29 12:34:12;;;;;;;144.15;59.83;;;;;;;;;;5021368;28;20485;-59
2021/12/29 12:36:41;;;;;;;138.52;58.80;;;;;;;;;;5021338;28;20064;-59
2021/12/29 12:39:08;;;;;;;132.80;57.63;;;;;;;;;;5024516;28;20535;-58
2021/12/29 12:41:39;;;;;;;128.13;57.53;;;;;;;;;;5021821;28;20057;-59
2021/12/29 12:44:06;;;;;;;138.60;58.08;;;;;;;;;;5022281;28;20096;-59
2021/12/29 12:46:33;;;;;;;124.03;55.40;;;;;;;;;;5021534;28;20060;-60
2021/12/29 12:49:11;;;;;;;117.18;51.17;;;;;;;;;;5022163;28;20045;-59
2021/12/29 12:51:38;;;;;;;124.93;53.28;;;;;;;;;;5022102;28;20057;-59
2021/12/29 12:54:17;;;;;;;107.63;46.22;;;;;;;;;;5023640;28;20053;-60
2021/12/29 12:56:48;;;;;;;113.45;48.00;;;;;;;;;;5023174;28;20054;-59
2021/12/29 12:59:16;;;;;;;120.90;50.40;;;;;;;;;;5021963;28;20053;-61
2021/12/29 13:01:45;;;;;;;102.55;45.17;;;;;;;;;;5023373;28;20456;-59
2021/12/29 13:04:15;;;;;;;101.53;44.53;;;;;;;;;;5022456;28;20045;-59
2021/12/29 13:06:43;;;;;;;106.03;46.63;;;;;;;;;;5021183;28;20045;-59
2021/12/29 13:09:11;;;;;;;103.35;44.92;;;;;;;;;;5019868;28;20053;-61
2021/12/29 13:11:40;;;;;;;100.03;43.28;;;;;;;;;;5025601;28;20047;-60
2021/12/29 13:14:11;;;;;;;95.63;42.97;;;;;;;;;;5022254;28;20057;-58
2021/12/29 13:16:39;;;;;;;88.97;38.53;;;;;;;;;;5023176;28;20069;-59
2021/12/29 13:19:06;;;;;;;90.18;39.33;;;;;;;;;;5021493;28;20050;-59
2021/12/29 13:21:48;;;;;;;75.70;33.35;;;;;;;;;;5023037;28;20045;-59
2021/12/29 13:24:15;;;;;;;65.50;26.27;;;;;;;;;;5022554;28;20049;-57
2021/12/29 13:26:44;;;;;;;46.55;19.20;;;;;;;;;;5021795;28;20524;-59
2021/12/29 13:29:16;;;;;;;46.67;16.30;;;;;;;;;;5023585;28;20052;-61
2021/12/29 13:31:43;;;;;;;31.83;12.98;;;;;;;;;;5021663;28;20085;-60
2021/12/29 13:34:10;;;;;;;28.10;11.00;;;;;;;;;;5024773;28;20480;-58
2021/12/29 17:08:22;;;;;;;;;;;;;;;;;;5076626;27;19921;-59
2021/12/29 17:10:49;;;;;;;;;;;;;;;;;;5061588;28;20303;-61
2021/12/29 17:13:17;;;;;;;;;;;;;;;;;;5058167;28;19928;-59
2021/12/29 17:15:44;;;;;;;;;;;;;;;;;;5056750;28;19939;-64
2021/12/29 17:18:11;;;;;;;;;;;;;;;;;;5060755;28;19924;-54
2021/12/29 17:20:38;;;;;;;;;;;;;;;;;;5061456;28;20364;-60
2021/12/29 17:23:05;;;;;;;;;;;;;;;;;;5055896;28;19932;-64
2021/12/29 17:25:33;;;;;;;;;;;;;;;;;;5057479;28;19925;-52
2021/12/29 17:28:00;;;;;;;;;;;;;;;;;;5056742;28;20299;-64
